Terminal Aerodrome Forecast
Issued by NWS

Home | Current Version | Previous Version | Text Only | Print | Product List | Glossary On
Versions: 1 2 3 4 5 6 7 8 9 10 11 12 13 14
942
FTUS45 KPIH 211720
TAFSUN
TAF
KSUN 211720Z 2118/2224 15009KT P6SM FEW250
     FM212200 21011KT P6SM FEW250
     FM220200 31008KT P6SM SCT200
     FM221800 15008KT P6SM VCSH OVC080=

USA.gov is the U.S. government's official web portal to all federal, state and local government web resources and services.